map of KLC home
KLC - Airport
Location
City:  Kaolack, Kaolack, Senegal
Name:Kaolack Airport
ICAO:GOOK
IATA:KLC

Details
Type:Airport (Aerodrome, Airfield)
Latitude:14°08'49"N (14.146881)
Longitude:16°03'05"W (-16.051296)
Datum:WGS 1984
Elevation:26 ft (8 m)
Variation:6.77°W (WMM2015 magnetic declination)
0.11° annual change
Runways:1
Longest:5249 × 98 ft (1600 × 30 m), paved

Time
Time Zone:UTC+0
Local Time:

Weather
METAR:GOOK 161200Z 36004KT CAVOK 31/14 Q1014

Related Locations
Nearby:
Farthest:OLJ: 12266 mi / 19740 km
Olpoi [North West Santo], Espíritu Santo Island, SAM, VU

Find:

   beyond  
but within

Other Information
Maps:
NOTAMs:
Links:
Sources:

  
  • flag of Senegal
  

Sectional Chart

Flight Planning
at skyvector.com

Satellite Image

Google Maps Satellite view

 

Copyright © 2004-2018 Karl L. Swartz. All rights reserved.
The Great Circle Mapper name and logo are trademarks of the Great Circle Mapper.
All other trademarks mentioned herein belong to their respective owners.
Please see credits for attibutions and further copyright information.

  Follow gcmap on Facebook Follow gcmap on Twitter Follow gcmap on Google+ GCmap on LinkedIn

hCard Microformat

Geo Microformat